createdAt,value
2018-06-10T00:00:11.178Z,73.28
2018-06-10T00:02:39.460Z,74.00
2018-06-10T00:05:07.739Z,75.55
2018-06-10T00:07:36.035Z,77.37
2018-06-10T00:10:04.322Z,77.77
2018-06-10T00:12:32.609Z,77.53
2018-06-10T00:15:00.859Z,78.43
2018-06-10T00:17:29.158Z,78.71
2018-06-10T00:19:57.420Z,77.80
2018-06-10T00:22:25.701Z,76.98
2018-06-10T00:24:54.009Z,77.69
2018-06-10T00:27:22.294Z,78.19
2018-06-10T00:29:50.563Z,78.81
2018-06-10T00:32:18.847Z,77.81
2018-06-10T00:34:47.134Z,76.80
2018-06-10T00:37:15.434Z,76.40
2018-06-10T00:39:43.785Z,76.03
2018-06-10T00:42:12.075Z,78.05
2018-06-10T00:44:40.331Z,78.75
2018-06-10T00:47:08.639Z,79.73
2018-06-10T00:49:36.882Z,79.29
2018-06-10T00:52:05.191Z,79.20
2018-06-10T00:54:33.470Z,78.51
2018-06-10T00:57:01.726Z,78.44
2018-06-10T00:59:30.030Z,79.04
2018-06-10T01:01:58.315Z,78.29
2018-06-10T01:04:26.621Z,77.57
2018-06-10T01:06:54.870Z,77.12
2018-06-10T01:09:23.173Z,78.84
2018-06-10T01:11:51.501Z,79.43
2018-06-10T01:14:19.798Z,79.89
2018-06-10T01:16:48.056Z,79.78
2018-06-10T01:19:16.471Z,79.73
2018-06-10T01:21:44.727Z,78.97
2018-06-10T01:24:13.055Z,78.62
2018-06-10T01:26:46.583Z,78.60
2018-06-10T01:29:14.866Z,78.73
2018-06-10T01:31:43.122Z,77.90
2018-06-10T01:34:11.411Z,77.48
2018-06-10T01:36:39.676Z,78.55
2018-06-10T01:39:07.958Z,79.28
2018-06-10T01:41:36.206Z,79.17
2018-06-10T01:44:04.503Z,79.26
2018-06-10T01:46:32.753Z,78.68
2018-06-10T01:49:01.051Z,79.86
2018-06-10T01:51:29.294Z,81.08
2018-06-10T01:53:57.593Z,81.82
2018-06-10T01:56:25.855Z,81.50
2018-06-10T01:58:54.228Z,81.94
2018-06-10T02:01:22.517Z,81.61
2018-06-10T02:03:50.826Z,81.43
2018-06-10T02:06:19.102Z,80.05
2018-06-10T02:08:47.453Z,79.42
2018-06-10T02:11:15.698Z,78.67
2018-06-10T02:13:43.987Z,78.80
2018-06-10T02:16:12.366Z,79.22
2018-06-10T02:18:40.670Z,78.45
2018-06-10T02:21:08.917Z,80.88
2018-06-10T02:23:37.255Z,82.25
2018-06-10T02:26:05.563Z,82.79
2018-06-10T02:28:33.859Z,83.12
2018-06-10T02:31:02.110Z,83.14
2018-06-10T02:33:30.366Z,83.68
2018-06-10T02:35:58.654Z,82.79
2018-06-10T02:38:26.960Z,82.30
2018-06-10T02:40:55.283Z,80.46
2018-06-10T02:43:23.566Z,79.76
2018-06-10T02:45:51.978Z,77.40
2018-06-10T02:48:20.239Z,76.93
2018-06-10T02:50:48.608Z,77.28
2018-06-10T02:53:16.909Z,76.54
2018-06-10T02:55:45.242Z,76.77
2018-06-10T02:58:13.497Z,76.71
2018-06-10T03:00:41.818Z,75.89
2018-06-10T03:03:10.110Z,76.25
2018-06-10T03:05:38.398Z,75.24
2018-06-10T03:08:06.684Z,75.50
2018-06-10T03:10:34.974Z,76.24
2018-06-10T03:13:03.543Z,75.68
2018-06-10T03:15:31.866Z,75.98
2018-06-10T03:18:00.131Z,76.42
2018-06-10T03:20:28.491Z,75.76
2018-06-10T03:22:56.750Z,75.77
2018-06-10T03:25:25.090Z,75.19
2018-06-10T03:27:53.362Z,76.07
2018-06-10T03:30:21.669Z,76.14
2018-06-10T03:32:49.938Z,75.19
2018-06-10T03:35:18.263Z,74.94
2018-06-10T03:37:46.535Z,75.45
2018-06-10T03:40:14.849Z,75.45
2018-06-10T03:42:43.106Z,76.13
2018-06-10T03:45:11.402Z,75.59
2018-06-10T03:47:39.653Z,75.95
2018-06-10T03:50:07.952Z,76.48
2018-06-10T03:52:36.651Z,75.95
2018-06-10T03:55:05.039Z,75.27
2018-06-10T03:57:33.640Z,76.86
2018-06-10T04:00:01.975Z,76.64
2018-06-10T04:02:30.274Z,76.12
2018-06-10T04:04:58.577Z,77.00
2018-06-10T04:07:26.859Z,77.28
2018-06-10T04:09:55.190Z,77.65
2018-06-10T04:12:23.441Z,77.31
2018-06-10T04:14:51.706Z,78.00
2018-06-10T04:17:20.130Z,77.58
2018-06-10T04:19:48.382Z,78.59
2018-06-10T04:22:16.670Z,77.87
2018-06-10T04:24:44.937Z,78.02
2018-06-10T04:27:13.286Z,77.91
2018-06-10T04:29:41.577Z,78.87
2018-06-10T04:32:09.867Z,78.21
2018-06-10T04:34:38.109Z,78.04
2018-06-10T04:37:06.400Z,78.21
2018-06-10T04:42:02.005Z,78.88
2018-06-10T04:44:30.258Z,78.80
2018-06-10T04:46:58.602Z,78.28
2018-06-10T04:49:26.863Z,78.70
2018-06-10T04:51:55.175Z,78.15
2018-06-10T04:54:23.442Z,78.06
2018-06-10T04:56:51.727Z,77.52
2018-06-10T04:59:19.973Z,77.94
2018-06-10T05:01:48.262Z,78.26
2018-06-10T05:04:16.505Z,77.60
2018-06-10T05:06:44.802Z,77.78
2018-06-10T05:09:13.056Z,77.99
2018-06-10T05:11:41.346Z,77.20
2018-06-10T05:14:09.611Z,78.60
2018-06-10T05:16:37.925Z,77.76
2018-06-10T05:19:06.176Z,77.59
2018-06-10T05:21:34.492Z,77.06
2018-06-10T05:24:02.837Z,77.01
2018-06-10T05:26:31.235Z,77.25
2018-06-10T05:29:02.541Z,78.12
2018-06-10T05:31:31.286Z,76.96
2018-06-10T05:33:59.546Z,76.48
2018-06-10T05:36:27.894Z,77.57
2018-06-10T05:38:56.254Z,75.37
2018-06-10T05:41:24.551Z,76.39
2018-06-10T05:43:52.800Z,76.21
2018-06-10T05:46:21.110Z,76.69
2018-06-10T05:48:49.425Z,77.92
2018-06-10T05:51:17.777Z,78.21
2018-06-10T05:53:46.055Z,77.29
2018-06-10T05:56:14.314Z,76.57
2018-06-10T05:58:42.860Z,78.14
2018-06-10T06:01:11.126Z,77.26
2018-06-10T06:03:39.422Z,78.02
2018-06-10T06:06:07.694Z,77.77
2018-06-10T06:08:36.018Z,78.14
2018-06-10T06:11:04.289Z,78.22
2018-06-10T06:13:32.590Z,77.50
2018-06-10T06:16:00.881Z,77.42
2018-06-10T06:18:29.230Z,77.78
2018-06-10T06:20:57.552Z,79.32
2018-06-10T06:23:25.859Z,79.61
2018-06-10T06:25:54.186Z,79.18
2018-06-10T06:28:22.493Z,77.84
2018-06-10T06:30:50.755Z,78.97
2018-06-10T06:33:19.474Z,78.17
2018-06-10T06:35:47.710Z,78.02
2018-06-10T06:38:16.007Z,78.59
2018-06-10T06:40:44.258Z,78.05
2018-06-10T06:43:12.585Z,77.77
2018-06-10T06:45:40.927Z,78.19
2018-06-10T06:48:09.485Z,78.88
2018-06-10T06:50:37.980Z,79.24
2018-06-10T06:53:06.355Z,78.85
2018-06-10T06:55:34.730Z,79.51
2018-06-10T06:58:03.329Z,79.12
2018-06-10T07:00:31.721Z,79.82
2018-06-10T07:03:00.138Z,79.63
2018-06-10T07:05:28.434Z,79.40
2018-06-10T07:07:56.858Z,79.78
2018-06-10T07:10:25.195Z,80.51
2018-06-10T07:12:53.529Z,80.36
2018-06-10T07:15:21.778Z,79.98
2018-06-10T07:17:50.068Z,80.47
2018-06-10T07:20:18.858Z,81.07
2018-06-10T07:22:47.301Z,81.39
2018-06-10T07:25:15.560Z,81.16
2018-06-10T07:27:44.011Z,80.98
2018-06-10T07:30:12.394Z,81.09
2018-06-10T07:32:40.700Z,80.48
2018-06-10T07:35:09.021Z,80.53
2018-06-10T07:37:37.266Z,79.94
2018-06-10T07:40:05.575Z,81.12
2018-06-10T07:42:33.898Z,81.05
2018-06-10T07:45:02.224Z,80.20
2018-06-10T07:47:30.643Z,80.25
2018-06-10T07:49:58.997Z,81.13
2018-06-10T07:52:27.312Z,80.48
2018-06-10T07:54:55.609Z,79.87
2018-06-10T07:57:23.857Z,80.16
2018-06-10T07:59:52.325Z,79.75
2018-06-10T08:02:20.581Z,80.02
2018-06-10T08:04:48.955Z,79.80
2018-06-10T08:07:17.534Z,79.99
2018-06-10T08:09:45.852Z,80.29
2018-06-10T08:12:14.136Z,80.14
2018-06-10T08:14:42.446Z,81.16
2018-06-10T08:17:10.711Z,80.09
2018-06-10T08:19:39.103Z,81.20
2018-06-10T08:22:07.428Z,80.81
2018-06-10T08:24:35.719Z,79.91
2018-06-10T08:27:04.022Z,80.11
2018-06-10T08:29:32.328Z,79.59
2018-06-10T08:32:00.694Z,80.33
2018-06-10T08:34:29.061Z,80.57
2018-06-10T08:36:57.334Z,80.53
2018-06-10T08:39:25.634Z,81.22
2018-06-10T08:41:53.895Z,79.58
2018-06-10T08:44:22.218Z,79.92
2018-06-10T08:46:50.534Z,79.02
2018-06-10T08:49:18.836Z,80.11
2018-06-10T08:51:48.186Z,79.82
2018-06-10T08:54:16.530Z,79.13
2018-06-10T08:56:44.794Z,78.40
2018-06-10T08:59:13.146Z,78.60
2018-06-10T09:01:41.483Z,79.80
2018-06-10T09:04:09.779Z,79.85
2018-06-10T09:06:38.049Z,80.52
2018-06-10T09:09:08.952Z,79.37
2018-06-10T09:11:37.777Z,80.07
2018-06-10T09:14:06.074Z,80.30
2018-06-10T09:16:34.482Z,79.89
2018-06-10T09:19:02.802Z,80.81
2018-06-10T09:21:31.422Z,80.61
2018-06-10T09:24:00.055Z,80.06
2018-06-10T09:26:28.342Z,81.07
2018-06-10T09:28:56.615Z,80.43
2018-06-10T09:31:24.915Z,83.41
2018-06-10T09:33:54.658Z,84.92
2018-06-10T09:36:23.494Z,84.25
2018-06-10T09:38:52.050Z,83.65
2018-06-10T09:41:20.346Z,84.83
2018-06-10T09:43:48.725Z,83.71
2018-06-10T09:46:17.158Z,84.68
2018-06-10T09:48:45.530Z,84.58
2018-06-10T09:51:13.958Z,86.46
2018-06-10T09:53:42.210Z,84.69
2018-06-10T09:56:10.506Z,84.24
2018-06-10T09:58:38.902Z,84.70
2018-06-10T10:01:07.204Z,86.31
2018-06-10T10:03:35.552Z,86.47
2018-06-10T10:06:04.168Z,88.45
2018-06-10T10:08:32.498Z,87.12
2018-06-10T10:11:00.813Z,87.93
2018-06-10T10:13:29.074Z,85.72
2018-06-10T10:15:57.430Z,85.40
2018-06-10T10:18:25.712Z,82.70
2018-06-10T10:20:54.032Z,80.95
2018-06-10T10:23:22.295Z,83.94
2018-06-10T10:25:50.579Z,85.11
2018-06-10T10:28:18.883Z,84.84
2018-06-10T10:30:47.155Z,84.39
2018-06-10T10:33:15.446Z,84.17
2018-06-10T10:35:43.901Z,82.00
2018-06-10T10:38:12.270Z,81.62
2018-06-10T10:40:40.632Z,80.96
2018-06-10T10:43:08.973Z,81.40
2018-06-10T10:45:37.288Z,79.09
2018-06-10T10:48:05.618Z,80.23
2018-06-10T10:50:34.130Z,77.93
2018-06-10T10:53:02.427Z,78.57
2018-06-10T10:55:30.746Z,79.56
2018-06-10T10:57:59.062Z,80.66
2018-06-10T11:00:27.427Z,81.05
2018-06-10T11:02:55.781Z,77.10
2018-06-10T11:05:24.080Z,78.69
2018-06-10T11:07:53.127Z,79.08
2018-06-10T11:10:21.432Z,76.91
2018-06-10T11:12:49.842Z,74.06
2018-06-10T11:15:18.263Z,78.95
2018-06-10T11:17:46.623Z,77.83
2018-06-10T11:20:15.050Z,78.05
2018-06-10T11:22:43.339Z,77.98
2018-06-10T11:25:11.779Z,76.50
2018-06-10T11:27:40.777Z,77.24
2018-06-10T11:30:09.330Z,74.83
2018-06-10T11:32:37.612Z,73.97
2018-06-10T11:35:05.922Z,73.71
2018-06-10T11:37:34.258Z,77.76
2018-06-10T11:40:02.664Z,76.79
2018-06-10T11:42:31.284Z,76.53
2018-06-10T11:45:00.327Z,74.74
2018-06-10T11:47:28.657Z,73.46
2018-06-10T11:49:56.917Z,75.53
2018-06-10T11:52:25.230Z,72.20
2018-06-10T11:54:53.751Z,76.06
2018-06-10T11:57:22.654Z,74.73
2018-06-10T11:59:50.938Z,76.71
2018-06-10T12:02:19.259Z,75.78
2018-06-10T12:04:47.586Z,75.73
2018-06-10T12:07:15.926Z,75.23
2018-06-10T12:09:44.258Z,75.38
2018-06-10T12:12:12.624Z,74.38
2018-06-10T12:14:40.962Z,73.96
2018-06-10T12:17:09.336Z,73.66
2018-06-10T12:19:37.635Z,70.98
2018-06-10T12:22:05.934Z,72.79
2018-06-10T12:24:34.306Z,74.35
2018-06-10T12:27:02.679Z,73.95
2018-06-10T12:29:30.981Z,71.67
2018-06-10T12:31:59.720Z,72.90
2018-06-10T12:34:28.361Z,73.15
2018-06-10T12:37:00.877Z,71.17
2018-06-10T12:39:38.465Z,70.31
2018-06-10T12:43:27.568Z,71.52
2018-06-10T12:48:53.515Z,71.72
2018-06-10T12:51:31.357Z,72.18
2018-06-10T12:54:01.214Z,72.79
2018-06-10T12:56:39.013Z,70.14
2018-06-10T12:59:09.837Z,70.09
2018-06-10T13:01:38.392Z,72.20
2018-06-10T13:04:07.076Z,70.79
2018-06-10T13:06:35.818Z,68.40
2018-06-10T13:09:06.795Z,69.32
2018-06-10T13:11:35.542Z,68.12
2018-06-10T13:14:06.481Z,69.66
2018-06-10T13:16:37.163Z,69.45
2018-06-10T13:19:06.918Z,67.53
2018-06-10T13:21:42.570Z,68.48
2018-06-10T13:24:12.366Z,67.79
2018-06-10T13:26:44.640Z,66.11
2018-06-10T13:29:18.338Z,67.11
2018-06-10T13:31:47.130Z,67.88
2018-06-10T13:34:18.897Z,68.50
2018-06-10T13:36:58.204Z,69.33
2018-06-10T13:39:31.260Z,69.44
2018-06-10T13:42:12.749Z,67.85
2018-06-10T13:44:45.730Z,69.52
2018-06-10T13:50:05.800Z,67.33
2018-06-10T13:52:35.922Z,67.90
2018-06-10T13:55:16.858Z,67.99
2018-06-10T13:57:45.341Z,67.85
2018-06-10T14:00:24.453Z,65.60
2018-06-10T14:02:53.776Z,64.84
2018-06-10T14:05:23.432Z,65.20
2018-06-10T14:08:14.297Z,66.72
2018-06-10T14:10:45.505Z,63.07
2018-06-10T14:13:14.428Z,64.99
2018-06-10T14:16:22.472Z,64.79
2018-06-10T14:18:52.382Z,66.30
2018-06-10T14:21:21.875Z,66.51
2018-06-10T14:23:59.852Z,68.11
2018-06-10T14:26:48.626Z,68.59
2018-06-10T14:29:17.744Z,68.06
2018-06-10T14:31:53.338Z,66.74
2018-06-10T14:34:23.872Z,67.50
2018-06-10T14:36:53.363Z,67.05
2018-06-10T14:39:30.970Z,68.00
2018-06-10T14:42:02.232Z,68.83
2018-06-10T14:44:36.312Z,69.62
2018-06-10T14:47:10.268Z,70.32
2018-06-10T14:49:43.339Z,70.19
2018-06-10T14:52:15.196Z,70.81
2018-06-10T14:54:47.885Z,70.33
2018-06-10T14:57:27.150Z,69.81
2018-06-10T14:59:59.246Z,70.37
2018-06-10T15:02:28.306Z,70.83
2018-06-10T15:04:59.113Z,70.71
2018-06-10T15:07:28.160Z,72.07
2018-06-10T15:10:06.011Z,72.45
2018-06-10T15:12:35.566Z,72.28
2018-06-10T15:15:06.216Z,74.13
2018-06-10T15:17:37.483Z,73.13
2018-06-10T15:20:19.140Z,72.08
2018-06-10T15:22:54.822Z,71.66
2018-06-10T15:25:26.688Z,73.46
2018-06-10T15:27:55.347Z,73.14
2018-06-10T15:30:23.931Z,73.39
2018-06-10T15:32:53.787Z,72.45
2018-06-10T15:38:30.202Z,70.54
2018-06-10T15:41:10.365Z,70.31
2018-06-10T15:46:36.517Z,70.64
2018-06-10T15:49:05.362Z,67.88
2018-06-10T15:51:35.654Z,68.00
2018-06-10T15:54:05.682Z,69.02
2018-06-10T15:56:38.678Z,67.61
2018-06-10T15:59:14.120Z,68.75
2018-06-10T16:02:03.759Z,68.90
2018-06-10T16:04:36.655Z,70.12
2018-06-10T16:07:10.924Z,69.82
2018-06-10T16:09:40.792Z,68.42
2018-06-10T16:12:09.966Z,69.19
2018-06-10T16:14:43.388Z,67.27
2018-06-10T16:17:12.456Z,68.62
2018-06-10T16:19:47.520Z,67.78
2018-06-10T16:22:17.299Z,67.85
2018-06-10T16:24:45.826Z,68.60
2018-06-10T16:27:14.863Z,68.13
2018-06-10T16:29:44.107Z,69.48
2018-06-10T16:32:14.563Z,68.66
2018-06-10T16:34:43.859Z,70.61
2018-06-10T16:37:13.022Z,70.10
2018-06-10T16:39:47.060Z,70.96
2018-06-10T16:42:17.351Z,70.44
2018-06-10T16:44:47.066Z,71.34
2018-06-10T16:47:17.161Z,71.22
2018-06-10T16:49:47.418Z,72.21
2018-06-10T16:52:16.099Z,70.98
2018-06-10T16:54:46.948Z,71.13
2018-06-10T16:57:16.106Z,71.13
2018-06-10T16:59:48.637Z,70.99
2018-06-10T17:02:17.365Z,70.35
2018-06-10T17:04:47.150Z,70.95
2018-06-10T17:07:24.065Z,68.59
2018-06-10T17:12:29.578Z,69.10
2018-06-10T17:14:59.715Z,70.13
2018-06-10T17:17:31.826Z,70.85
2018-06-10T17:20:01.262Z,69.33
2018-06-10T17:22:35.260Z,69.74
2018-06-10T17:25:07.503Z,68.82
2018-06-10T17:27:42.374Z,69.68
2018-06-10T17:30:32.930Z,68.87
2018-06-10T17:33:05.315Z,69.38
2018-06-10T17:35:47.661Z,69.18
2018-06-10T17:38:16.860Z,69.55
2018-06-10T17:40:46.104Z,68.67
2018-06-10T17:43:17.797Z,67.31
2018-06-10T17:45:57.909Z,66.69
2018-06-10T17:48:50.544Z,68.41
2018-06-10T17:51:22.323Z,69.09
2018-06-10T17:54:21.804Z,68.13
2018-06-10T17:56:54.567Z,68.47
2018-06-10T18:02:11.590Z,69.62
2018-06-10T18:04:47.789Z,69.95
2018-06-10T18:07:24.060Z,70.93
2018-06-10T18:10:04.372Z,71.47
2018-06-10T18:12:42.849Z,71.01
2018-06-10T18:15:21.784Z,71.59
2018-06-10T18:17:52.685Z,71.90
2018-06-10T18:20:22.654Z,72.50
2018-06-10T18:22:52.411Z,72.72
2018-06-10T18:25:21.316Z,72.47
2018-06-10T18:27:55.154Z,72.97
2018-06-10T18:30:28.629Z,72.90
2018-06-10T18:32:57.389Z,74.79
2018-06-10T18:35:27.558Z,73.81
2018-06-10T18:37:56.641Z,74.18
2018-06-10T18:40:35.265Z,74.00
2018-06-10T18:43:04.905Z,74.73
2018-06-10T18:45:36.754Z,74.43
2018-06-10T18:48:08.792Z,73.31
2018-06-10T18:50:39.533Z,73.29
2018-06-10T18:53:20.372Z,73.46
2018-06-10T18:55:58.735Z,74.33
2018-06-10T18:58:32.463Z,73.99
2018-06-10T19:01:07.347Z,74.91
2018-06-10T19:03:40.107Z,73.59
2018-06-10T19:06:15.277Z,73.83
2018-06-10T19:08:46.407Z,74.51
2018-06-10T19:11:18.153Z,74.82
2018-06-10T19:13:58.129Z,75.37
2018-06-10T19:19:21.676Z,75.98
2018-06-10T19:22:03.669Z,75.56
2018-06-10T19:24:39.400Z,76.06
2018-06-10T19:27:11.191Z,75.29
2018-06-10T19:30:29.563Z,76.45
2018-06-10T19:33:55.783Z,75.99
2018-06-10T19:36:27.763Z,75.16
2018-06-10T19:39:14.246Z,74.86
2018-06-10T19:42:00.144Z,75.30
2018-06-10T19:44:41.212Z,76.82
2018-06-10T19:47:13.625Z,78.18
2018-06-10T19:52:33.769Z,78.10
2018-06-10T19:55:06.968Z,79.79
2018-06-10T19:57:36.990Z,81.59
2018-06-10T20:00:06.101Z,82.15
2018-06-10T20:02:37.712Z,81.62
2018-06-10T20:05:09.977Z,83.12
2018-06-10T20:07:38.716Z,81.44
2018-06-10T20:10:07.994Z,81.69
2018-06-10T20:12:37.027Z,80.40
2018-06-10T20:15:16.093Z,80.21
2018-06-10T20:18:16.286Z,81.69
2018-06-10T20:20:46.248Z,82.27
2018-06-10T20:23:14.884Z,82.12
2018-06-10T20:25:45.064Z,82.78
2018-06-10T20:28:20.281Z,83.33
2018-06-10T20:30:49.673Z,83.10
2018-06-10T20:33:32.899Z,83.65
2018-06-10T20:36:02.720Z,83.78
2018-06-10T20:38:36.849Z,83.04
2018-06-10T20:41:06.742Z,81.64
2018-06-10T20:43:40.679Z,82.41
2018-06-10T20:46:09.907Z,82.67
2018-06-10T20:48:40.265Z,83.19
2018-06-10T20:51:21.487Z,83.30
2018-06-10T20:56:40.217Z,82.04
2018-06-10T20:59:08.915Z,81.96
2018-06-10T21:01:47.059Z,82.79
2018-06-10T21:04:26.822Z,82.11
2018-06-10T21:06:57.433Z,82.76
2018-06-10T21:09:39.191Z,82.27
2018-06-10T21:12:32.258Z,81.54
2018-06-10T21:18:35.109Z,83.25
2018-06-10T21:24:04.533Z,81.74
2018-06-10T21:26:35.622Z,81.50
2018-06-10T21:29:08.346Z,81.38
2018-06-10T21:31:38.870Z,82.35
2018-06-10T21:34:08.747Z,82.51
2018-06-10T21:36:39.487Z,82.88
2018-06-10T21:39:10.958Z,81.88
2018-06-10T21:41:41.107Z,83.17
2018-06-10T21:44:11.315Z,83.53
2018-06-10T21:46:40.225Z,83.03
2018-06-10T21:49:09.407Z,83.25
2018-06-10T21:51:41.830Z,83.87
2018-06-10T21:54:13.325Z,84.71
2018-06-10T21:56:45.067Z,83.75
2018-06-10T21:59:14.642Z,84.22
2018-06-10T22:01:44.492Z,84.03
2018-06-10T22:04:13.231Z,84.24
2018-06-10T22:06:42.739Z,84.00
2018-06-10T22:09:12.149Z,85.04
2018-06-10T22:11:41.557Z,84.46
2018-06-10T22:14:11.066Z,83.91
2018-06-10T22:16:39.967Z,83.80
2018-06-10T22:19:09.196Z,83.79
2018-06-10T22:24:20.766Z,84.81
2018-06-10T22:26:49.282Z,84.50
2018-06-10T22:29:18.846Z,85.61
2018-06-10T22:31:56.902Z,85.13
2018-06-10T22:34:26.376Z,84.97
2018-06-10T22:36:56.585Z,85.13
2018-06-10T22:39:26.322Z,84.78
2018-06-10T22:42:19.900Z,85.95
2018-06-10T22:44:48.532Z,85.53
2018-06-10T22:47:17.710Z,85.14
2018-06-10T22:49:46.469Z,85.07
2018-06-10T22:52:14.865Z,85.38
2018-06-10T22:54:46.867Z,85.33
2018-06-10T22:57:27.844Z,85.63
2018-06-10T22:59:58.357Z,87.22
2018-06-10T23:02:29.135Z,87.64
2018-06-10T23:04:57.945Z,87.77
2018-06-10T23:07:26.366Z,87.01
2018-06-10T23:09:54.735Z,87.66
2018-06-10T23:12:23.292Z,87.64
2018-06-10T23:14:52.623Z,86.96
2018-06-10T23:17:21.133Z,87.24
2018-06-10T23:19:49.514Z,86.70
2018-06-10T23:22:17.985Z,87.40
2018-06-10T23:24:50.033Z,87.87
2018-06-10T23:27:25.187Z,87.67
2018-06-10T23:29:53.571Z,87.61
2018-06-10T23:32:21.987Z,88.36
2018-06-10T23:34:50.663Z,87.93
2018-06-10T23:37:19.180Z,88.00
2018-06-10T23:39:48.079Z,88.61
2018-06-10T23:42:16.461Z,88.75
2018-06-10T23:44:44.975Z,88.93
2018-06-10T23:47:13.523Z,89.08
2018-06-10T23:49:42.849Z,88.67
2018-06-10T23:52:11.819Z,87.67
2018-06-10T23:54:40.257Z,87.58
2018-06-10T23:57:08.677Z,87.86
2018-06-10T23:59:38.138Z,88.04
